Time;durP1;ratioP1;P1;durP2;ratioP2;P2;SDS_P1;SDS_P2;PMS_P1;PMS_P2;Temp;Humidity;BMP_temperature;BMP_pressure;BME280_temperature;BME280_humidity;BME280_pressure;Samples;Min_cycle;Max_cycle;Signal;HPM_P1;HPM_P2
2023/07/26 00:00:22;;;;;;;5.70;4.15;;;20.50;57.60;;;;;;4952613;28;20066;-69
2023/07/26 00:02:50;;;;;;;6.45;3.80;;;20.20;57.00;;;;;;4949128;28;20031;-70
2023/07/26 00:05:17;;;;;;;6.75;3.50;;;20.40;56.30;;;;;;4949387;28;20070;-70
2023/07/26 00:07:44;;;;;;;8.32;4.60;;;19.90;58.30;;;;;;4952853;28;20074;-69
2023/07/26 00:10:12;;;;;;;7.47;3.95;;;19.60;57.30;;;;;;4948970;28;20495;-69
2023/07/26 00:12:39;;;;;;;5.30;3.63;;;19.80;59.80;;;;;;4954631;28;20031;-69
2023/07/26 00:15:07;;;;;;;4.68;3.70;;;20.30;56.90;;;;;;4951181;28;20034;-70
2023/07/26 00:17:34;;;;;;;6.22;3.13;;;20.60;57.30;;;;;;4944364;28;20039;-70
2023/07/26 00:20:03;;;;;;;6.47;3.58;;;20.70;56.50;;;;;;4962134;28;20029;-70
2023/07/26 00:22:30;;;;;;;6.38;3.65;;;20.70;54.80;;;;;;4950740;28;20050;-70
2023/07/26 00:24:59;;;;;;;4.82;2.60;;;20.80;55.80;;;;;;4949040;28;20078;-70
2023/07/26 00:27:27;;;;;;;7.53;3.30;;;20.30;55.90;;;;;;4952284;28;20059;-69
2023/07/26 00:29:54;;;;;;;4.88;3.08;;;20.10;56.50;;;;;;4948357;28;20031;-69
2023/07/26 00:32:22;;;;;;;5.78;2.72;;;20.30;54.80;;;;;;4948251;28;20477;-70
2023/07/26 00:34:49;;;;;;;6.10;3.30;;;20.50;55.60;;;;;;4948808;28;20023;-70
2023/07/26 00:37:16;;;;;;;6.88;3.20;;;20.60;57.20;;;;;;4949173;28;20039;-70
2023/07/26 00:39:45;;;;;;;5.38;3.20;;;20.90;55.80;;;;;;4948304;28;21182;-70
2023/07/26 00:42:17;;;;;;;8.25;3.58;;;21.30;56.00;;;;;;4941085;28;20114;-69
2023/07/26 00:44:45;;;;;;;8.32;3.83;;;22.00;52.80;;;;;;4944597;28;20038;-70
2023/07/26 00:47:12;;;;;;;5.60;3.03;;;21.80;52.70;;;;;;4943593;28;20031;-70
2023/07/26 00:49:40;;;;;;;4.68;3.42;;;21.80;51.40;;;;;;4948334;28;20023;-70
2023/07/26 00:52:08;;;;;;;8.73;2.70;;;21.90;53.30;;;;;;4951668;28;20027;-69
2023/07/26 00:54:36;;;;;;;5.45;3.08;;;21.80;53.30;;;;;;4951116;28;20077;-70
2023/07/26 00:57:03;;;;;;;6.03;2.80;;;22.20;52.30;;;;;;4952429;28;20516;-69
2023/07/26 00:59:31;;;;;;;9.02;3.08;;;22.00;51.80;;;;;;4952993;28;20480;-71
2023/07/26 01:01:58;;;;;;;3.28;2.53;;;21.90;53.20;;;;;;4953544;28;20062;-70
2023/07/26 01:04:25;;;;;;;4.03;2.80;;;22.70;49.80;;;;;;4950583;28;20020;-69
2023/07/26 01:07:12;;;;;;;4.90;2.70;;;22.30;50.30;;;;;;4968509;28;20065;-70
2023/07/26 01:09:53;;;;;;;3.73;2.47;;;22.20;52.00;;;;;;4948102;28;20034;-70
2023/07/26 01:12:26;;;;;;;4.22;2.67;;;22.80;49.70;;;;;;4950158;28;20060;-70
2023/07/26 01:15:02;;;;;;;7.38;2.42;;;22.80;50.60;;;;;;4949446;28;20110;-69
2023/07/26 01:17:30;;;;;;;3.37;2.30;;;23.50;48.50;;;;;;4950791;28;20039;-69
2023/07/26 01:19:58;;;;;;;3.70;2.42;;;23.50;48.70;;;;;;4940442;28;20273;-70
2023/07/26 01:22:25;;;;;;;4.80;2.65;;;23.10;48.80;;;;;;4954531;28;20531;-70
2023/07/26 01:24:52;;;;;;;8.13;3.20;;;22.80;49.80;;;;;;4934031;28;20035;-70
2023/07/26 01:27:20;;;;;;;3.85;2.58;;;22.90;49.60;;;;;;4951813;28;20028;-70
2023/07/26 01:29:51;;;;;;;4.38;2.25;;;23.20;49.60;;;;;;4945341;28;20035;-70
2023/07/26 01:32:21;;;;;;;6.97;2.63;;;22.60;50.10;;;;;;4952212;28;20038;-70
2023/07/26 01:34:48;;;;;;;4.05;2.28;;;23.20;49.70;;;;;;4947236;28;20019;-70
2023/07/26 01:37:18;;;;;;;7.28;1.98;;;23.20;49.00;;;;;;4949710;28;20051;-69
2023/07/26 01:39:45;;;;;;;4.88;2.15;;;23.50;48.40;;;;;;4948739;28;20381;-69
2023/07/26 01:42:13;;;;;;;3.58;2.10;;;23.50;48.10;;;;;;4944950;28;20043;-69
2023/07/26 01:44:41;;;;;;;5.55;2.03;;;22.90;49.50;;;;;;4948896;28;20062;-70
2023/07/26 01:47:09;;;;;;;3.95;2.10;;;22.90;49.50;;;;;;4951723;28;20419;-69
2023/07/26 01:49:36;;;;;;;4.13;2.63;;;23.30;49.70;;;;;;4945570;28;20066;-68
2023/07/26 01:52:03;;;;;;;4.25;2.60;;;23.40;48.70;;;;;;4948075;28;20122;-70
2023/07/26 01:54:31;;;;;;;8.02;2.65;;;23.20;48.90;;;;;;4952195;28;20436;-70
2023/07/26 01:56:58;;;;;;;5.00;2.55;;;22.50;50.10;;;;;;4951457;28;20051;-70
2023/07/26 01:59:25;;;;;;;7.05;2.55;;;22.70;51.00;;;;;;4951601;28;20081;-69
2023/07/26 02:01:53;;;;;;;3.67;1.88;;;23.30;50.20;;;;;;4947483;28;21251;-70
2023/07/26 02:04:20;;;;;;;2.97;1.98;;;23.40;48.20;;;;;;4945780;28;20030;-70
2023/07/26 02:06:47;;;;;;;4.50;1.77;;;22.90;49.90;;;;;;4947491;28;20479;-70
2023/07/26 02:09:15;;;;;;;3.47;1.67;;;23.50;48.80;;;;;;4931349;28;20130;-69
2023/07/26 02:11:42;;;;;;;4.38;1.90;;;24.00;47.30;;;;;;4934816;28;20027;-70
2023/07/26 02:14:09;;;;;;;3.25;1.67;;;24.10;48.10;;;;;;4950475;28;20373;-70
2023/07/26 02:16:37;;;;;;;4.13;2.00;;;24.10;46.00;;;;;;4946092;28;20489;-71
2023/07/26 02:19:04;;;;;;;4.10;2.40;;;23.90;46.90;;;;;;4949054;28;20038;-67
2023/07/26 02:21:31;;;;;;;6.18;2.70;;;23.80;46.50;;;;;;4947871;28;20038;-68
2023/07/26 02:23:59;;;;;;;3.45;2.10;;;23.70;47.20;;;;;;4948160;28;20037;-70
2023/07/26 02:26:26;;;;;;;7.43;2.38;;;24.10;46.70;;;;;;4949549;28;20031;-69
2023/07/26 02:28:53;;;;;;;5.32;1.98;;;24.20;45.90;;;;;;4942847;28;20496;-70
2023/07/26 02:31:22;;;;;;;3.72;2.20;;;23.70;46.10;;;;;;4950294;28;20469;-67
2023/07/26 02:33:49;;;;;;;4.07;1.60;;;23.70;46.90;;;;;;4950782;28;20028;-69
2023/07/26 02:36:16;;;;;;;2.88;1.42;;;23.90;46.60;;;;;;4949092;28;20050;-69
2023/07/26 02:38:44;;;;;;;5.30;1.80;;;24.10;47.20;;;;;;4951051;28;20032;-68
2023/07/26 02:41:11;;;;;;;6.55;1.70;;;24.60;44.90;;;;;;4967017;28;20053;-68
2023/07/26 02:43:38;;;;;;;2.90;1.50;;;24.60;46.60;;;;;;4950630;28;20042;-69
2023/07/26 02:46:05;;;;;;;3.25;1.38;;;24.40;47.10;;;;;;4946876;28;20046;-68
2023/07/26 02:48:33;;;;;;;5.75;1.98;;;24.60;46.20;;;;;;4951931;28;20039;-69
2023/07/26 02:51:02;;;;;;;5.57;1.52;;;24.60;45.30;;;;;;4951993;28;20489;-69
2023/07/26 02:53:30;;;;;;;4.07;1.50;;;24.50;45.60;;;;;;4951268;28;20028;-68
2023/07/26 02:55:57;;;;;;;5.53;1.70;;;24.70;44.80;;;;;;4949723;28;20106;-67
2023/07/26 02:58:24;;;;;;;2.25;1.25;;;25.00;44.60;;;;;;4944788;28;20491;-68
2023/07/26 03:00:55;;;;;;;3.58;1.92;;;24.90;45.00;;;;;;4952888;28;20059;-68
2023/07/26 03:03:22;;;;;;;4.25;1.75;;;25.00;44.60;;;;;;4952966;28;20043;-67
2023/07/26 03:05:49;;;;;;;4.90;1.50;;;24.20;44.80;;;;;;4950847;28;20035;-67
2023/07/26 03:08:17;;;;;;;4.80;1.90;;;23.90;46.10;;;;;;4947727;28;20038;-68
2023/07/26 03:10:44;;;;;;;3.90;1.40;;;24.10;47.10;;;;;;4951909;28;20035;-67
2023/07/26 03:13:11;;;;;;;4.13;1.73;;;24.10;44.90;;;;;;4952099;28;20074;-65
2023/07/26 03:15:42;;;;;;;3.35;1.63;;;23.90;45.60;;;;;;4950005;28;20381;-68
2023/07/26 03:18:09;;;;;;;5.20;1.75;;;23.90;45.10;;;;;;4953902;28;20078;-69
2023/07/26 03:20:37;;;;;;;3.28;1.08;;;23.60;46.30;;;;;;4954126;28;20551;-68
2023/07/26 03:23:04;;;;;;;2.08;1.10;;;23.60;45.50;;;;;;4954223;28;20205;-69
2023/07/26 03:25:31;;;;;;;4.07;1.00;;;23.60;44.10;;;;;;4951779;28;20062;-67
2023/07/26 03:27:59;;;;;;;2.85;1.20;;;23.40;45.90;;;;;;4949231;28;20031;-68
2023/07/26 03:30:26;;;;;;;2.50;1.00;;;23.60;47.20;;;;;;4956092;28;20140;-68
2023/07/26 03:32:53;;;;;;;2.85;1.08;;;23.50;45.70;;;;;;4959394;28;20389;-67
2023/07/26 03:35:21;;;;;;;7.07;1.30;;;23.30;45.80;;;;;;4947104;28;20037;-68
2023/07/26 03:37:48;;;;;;;3.42;1.38;;;23.20;45.30;;;;;;4953022;28;20035;-68
2023/07/26 03:40:16;;;;;;;3.03;1.35;;;22.90;46.30;;;;;;4950419;28;20031;-69
2023/07/26 03:42:43;;;;;;;2.53;1.27;;;22.60;45.50;;;;;;4951703;28;20027;-68
2023/07/26 03:45:10;;;;;;;3.50;1.10;;;22.20;46.30;;;;;;4950831;28;20456;-67
2023/07/26 03:47:38;;;;;;;4.50;1.15;;;22.30;46.70;;;;;;4948881;28;20366;-69
2023/07/26 03:50:05;;;;;;;2.75;1.00;;;22.10;45.50;;;;;;4951050;28;20092;-68
2023/07/26 03:52:33;;;;;;;4.13;1.80;;;21.90;47.00;;;;;;4952114;28;20158;-68
2023/07/26 03:55:00;;;;;;;2.92;1.10;;;21.80;46.60;;;;;;4951940;28;20034;-69
2023/07/26 03:57:28;;;;;;;1.40;0.95;;;21.90;47.20;;;;;;4955476;28;20059;-68
2023/07/26 03:59:55;;;;;;;3.20;1.05;;;21.80;45.80;;;;;;4949870;28;20171;-70
2023/07/26 04:02:22;;;;;;;4.30;1.20;;;21.70;45.70;;;;;;4950773;28;20117;-67
2023/07/26 04:04:50;;;;;;;3.17;0.80;;;21.50;44.90;;;;;;4952335;28;20485;-68
2023/07/26 04:07:17;;;;;;;2.00;0.98;;;21.40;45.10;;;;;;4954665;28;20086;-68
2023/07/26 04:09:44;;;;;;;4.75;1.20;;;21.30;45.60;;;;;;4948807;28;20066;-69
2023/07/26 04:12:12;;;;;;;3.28;1.15;;;21.40;45.40;;;;;;4951861;28;20508;-70
2023/07/26 04:14:39;;;;;;;2.50;0.80;;;21.40;45.90;;;;;;4949054;28;20023;-69
2023/07/26 04:17:07;;;;;;;1.38;0.80;;;21.30;45.50;;;;;;4948245;28;20039;-69
2023/07/26 04:19:34;;;;;;;2.47;1.00;;;21.10;45.60;;;;;;4949416;28;20430;-68
2023/07/26 04:22:02;;;;;;;2.47;0.90;;;20.90;46.60;;;;;;4951115;28;20031;-67
2023/07/26 04:24:29;;;;;;;1.67;0.88;;;20.90;46.70;;;;;;4952855;28;20477;-69
2023/07/26 04:26:56;;;;;;;1.88;0.82;;;20.80;47.70;;;;;;4953467;28;20037;-68
2023/07/26 04:29:24;;;;;;;2.28;1.25;;;20.70;46.70;;;;;;4950564;28;20366;-68
2023/07/26 04:31:51;;;;;;;2.47;1.15;;;20.60;47.00;;;;;;4949546;28;20054;-68
2023/07/26 04:34:19;;;;;;;0.90;0.70;;;20.60;47.50;;;;;;4947201;28;20035;-69
2023/07/26 04:36:46;;;;;;;3.97;0.80;;;20.60;47.50;;;;;;4952726;28;20039;-68
2023/07/26 04:39:13;;;;;;;3.20;1.05;;;20.70;47.10;;;;;;4949201;28;20385;-68
2023/07/26 04:41:40;;;;;;;1.23;0.70;;;20.70;47.40;;;;;;4954633;28;20065;-68
2023/07/26 04:44:08;;;;;;;1.30;0.88;;;20.60;46.50;;;;;;4946831;28;20036;-68
2023/07/26 04:46:35;;;;;;;3.20;0.88;;;20.50;46.80;;;;;;4951263;28;20031;-70
2023/07/26 04:49:03;;;;;;;2.55;1.00;;;20.30;47.20;;;;;;4944513;28;20039;-69
2023/07/26 04:51:30;;;;;;;2.20;1.00;;;20.30;47.40;;;;;;4945025;28;20114;-69
2023/07/26 04:53:58;;;;;;;3.38;1.10;;;20.30;47.80;;;;;;4944752;28;20041;-71
2023/07/26 04:56:26;;;;;;;3.55;0.80;;;20.20;47.80;;;;;;4955842;28;20424;-71
2023/07/26 04:58:54;;;;;;;2.20;0.90;;;20.30;47.50;;;;;;4950844;28;20110;-70
2023/07/26 05:01:22;;;;;;;3.60;1.10;;;20.10;47.60;;;;;;4949202;28;21725;-71
2023/07/26 05:03:49;;;;;;;4.47;0.90;;;20.10;47.70;;;;;;4961658;28;20102;-71
2023/07/26 05:06:17;;;;;;;4.20;0.80;;;20.00;48.10;;;;;;4946402;28;20039;-72
2023/07/26 05:08:44;;;;;;;5.20;1.05;;;19.90;47.70;;;;;;4947231;28;20046;-70
2023/07/26 05:11:11;;;;;;;1.98;0.80;;;19.90;47.90;;;;;;4953607;28;20022;-70
2023/07/26 05:13:39;;;;;;;2.75;0.90;;;20.00;48.50;;;;;;4949753;28;20042;-70
2023/07/26 05:16:06;;;;;;;3.25;1.23;;;19.90;48.40;;;;;;4949278;28;20028;-71
2023/07/26 05:18:33;;;;;;;2.30;1.27;;;20.00;48.70;;;;;;4952688;28;20033;-70
2023/07/26 05:21:01;;;;;;;3.70;0.95;;;20.10;47.80;;;;;;4954693;28;20038;-70
2023/07/26 05:23:28;;;;;;;1.80;0.75;;;20.20;48.00;;;;;;4955786;28;20023;-70
2023/07/26 05:25:56;;;;;;;2.85;0.90;;;20.10;48.00;;;;;;4951091;28;20473;-71
2023/07/26 05:28:23;;;;;;;3.95;1.00;;;20.00;48.20;;;;;;4951951;28;20161;-70
2023/07/26 05:30:51;;;;;;;2.00;0.93;;;20.10;48.80;;;;;;4956710;28;20039;-69
2023/07/26 05:33:18;;;;;;;1.45;1.00;;;19.90;48.80;;;;;;4951595;28;20028;-69
2023/07/26 05:35:45;;;;;;;3.58;0.90;;;20.00;48.60;;;;;;4951934;28;20023;-69
2023/07/26 05:38:13;;;;;;;2.72;1.10;;;19.90;48.30;;;;;;4945701;28;20050;-69
2023/07/26 05:40:40;;;;;;;1.40;1.00;;;20.00;48.80;;;;;;4958272;28;20023;-69
2023/07/26 05:43:07;;;;;;;1.00;0.80;;;19.90;49.20;;;;;;4952140;28;20035;-70
2023/07/26 05:45:35;;;;;;;1.83;1.10;;;19.90;49.40;;;;;;4950276;28;20035;-70
2023/07/26 05:48:03;;;;;;;2.75;1.08;;;19.90;49.20;;;;;;4950693;28;20042;-70
2023/07/26 05:50:30;;;;;;;2.25;0.95;;;19.90;49.40;;;;;;4949328;28;20473;-70
2023/07/26 05:52:57;;;;;;;1.58;0.75;;;20.00;48.80;;;;;;4949645;28;20532;-69
2023/07/26 05:55:25;;;;;;;2.63;0.90;;;20.00;49.20;;;;;;4945960;28;20034;-70
2023/07/26 05:57:52;;;;;;;2.95;1.00;;;20.00;49.30;;;;;;4949702;28;20054;-72
2023/07/26 06:00:21;;;;;;;2.85;1.05;;;20.10;49.00;;;;;;4941566;28;20538;-70
2023/07/26 06:02:48;;;;;;;1.88;1.10;;;20.20;49.10;;;;;;4949794;28;20155;-71
2023/07/26 06:05:15;;;;;;;2.13;0.85;;;20.20;49.00;;;;;;4931377;28;20090;-70
2023/07/26 06:07:43;;;;;;;4.40;1.10;;;20.50;48.60;;;;;;4949311;28;20744;-70
2023/07/26 06:10:10;;;;;;;3.58;0.85;;;20.60;48.40;;;;;;4951413;28;20046;-70
2023/07/26 06:12:37;;;;;;;2.70;0.95;;;20.50;48.30;;;;;;4949826;28;20170;-69
2023/07/26 06:15:06;;;;;;;2.15;0.93;;;20.70;47.70;;;;;;4949925;28;20046;-70
2023/07/26 06:17:33;;;;;;;1.48;0.88;;;20.70;47.80;;;;;;4941269;28;20198;-70
2023/07/26 06:20:01;;;;;;;2.55;0.80;;;20.60;48.90;;;;;;4941466;28;20381;-69
2023/07/26 06:22:30;;;;;;;3.63;1.42;;;20.60;48.70;;;;;;4924720;28;20031;-71
2023/07/26 06:24:57;;;;;;;2.35;1.17;;;20.70;49.10;;;;;;4942003;28;20039;-69
2023/07/26 06:27:28;;;;;;;3.28;0.90;;;20.70;48.10;;;;;;4966982;28;20045;-70
2023/07/26 06:29:56;;;;;;;3.42;1.15;;;20.70;48.20;;;;;;4956000;28;20027;-71
2023/07/26 06:32:23;;;;;;;1.75;0.88;;;20.70;48.40;;;;;;4953724;28;20042;-69
2023/07/26 06:34:51;;;;;;;2.63;0.80;;;20.60;48.60;;;;;;4955031;28;20038;-69
2023/07/26 06:37:18;;;;;;;3.30;0.93;;;20.50;49.10;;;;;;4950064;28;20126;-69
2023/07/26 06:39:45;;;;;;;2.28;0.80;;;20.50;49.30;;;;;;4949548;28;20118;-70
2023/07/26 06:42:12;;;;;;;3.47;0.88;;;20.40;49.30;;;;;;4953481;28;20049;-70
2023/07/26 06:44:40;;;;;;;4.65;1.00;;;20.20;49.50;;;;;;4951977;28;20063;-73
2023/07/26 06:47:08;;;;;;;3.17;1.45;;;20.00;50.20;;;;;;4952932;28;20039;-71
2023/07/26 06:49:36;;;;;;;2.00;0.90;;;19.80;50.20;;;;;;4946646;28;20062;-71
2023/07/26 06:52:03;;;;;;;2.15;0.82;;;19.60;50.70;;;;;;4953224;28;20031;-71
2023/07/26 06:54:31;;;;;;;2.22;1.10;;;19.30;51.30;;;;;;4951617;28;20466;-68
2023/07/26 06:56:59;;;;;;;2.78;1.10;;;19.10;51.90;;;;;;4944759;28;20039;-68
2023/07/26 06:59:26;;;;;;;5.60;1.27;;;19.00;52.20;;;;;;4942328;28;20035;-68
2023/07/26 07:01:53;;;;;;;3.50;1.25;;;18.80;52.60;;;;;;4949356;28;20473;-69
2023/07/26 07:04:21;;;;;;;3.35;1.10;;;18.70;53.20;;;;;;4949876;28;20023;-70
2023/07/26 07:06:48;;;;;;;5.05;1.17;;;18.50;54.20;;;;;;4953149;28;20027;-70
2023/07/26 07:09:16;;;;;;;3.42;1.35;;;18.40;54.00;;;;;;4951646;28;20035;-69
2023/07/26 07:11:46;;;;;;;2.75;1.13;;;18.30;54.30;;;;;;4951859;28;20035;-69
2023/07/26 07:14:14;;;;;;;4.47;1.10;;;18.20;55.20;;;;;;4952110;28;20035;-69
2023/07/26 07:16:41;;;;;;;5.18;1.17;;;18.10;55.50;;;;;;4949857;28;20034;-70
2023/07/26 07:19:09;;;;;;;3.25;1.60;;;17.90;55.70;;;;;;4950269;28;20119;-69
2023/07/26 07:21:36;;;;;;;3.70;1.17;;;17.80;56.20;;;;;;4951799;28;20071;-69
2023/07/26 07:24:04;;;;;;;4.35;1.70;;;17.60;56.30;;;;;;4954562;28;20028;-70
2023/07/26 07:26:31;;;;;;;15.57;2.35;;;17.50;57.10;;;;;;4953314;28;20434;-70
2023/07/26 07:28:59;;;;;;;9.00;2.22;;;17.30;57.60;;;;;;4946989;28;20467;-70
2023/07/26 07:31:26;;;;;;;5.05;2.90;;;17.20;58.40;;;;;;4938636;28;20510;-70
2023/07/26 07:33:53;;;;;;;6.55;2.65;;;17.10;59.00;;;;;;4949530;28;20035;-70
2023/07/26 07:36:21;;;;;;;10.45;3.53;;;17.00;60.20;;;;;;4952061;28;20771;-69
2023/07/26 07:38:48;;;;;;;15.00;3.78;;;16.80;60.90;;;;;;4950181;28;20029;-69
2023/07/26 07:41:16;;;;;;;7.53;2.67;;;16.70;60.70;;;;;;4951061;28;20031;-69
2023/07/26 07:43:43;;;;;;;7.10;2.83;;;16.70;61.10;;;;;;4950416;28;20027;-70
2023/07/26 07:46:10;;;;;;;13.52;2.92;;;16.60;61.50;;;;;;4947852;28;20028;-69
2023/07/26 07:48:38;;;;;;;5.78;2.63;;;16.60;61.80;;;;;;4950320;28;20122;-69
2023/07/26 07:51:06;;;;;;;7.13;2.28;;;16.50;62.70;;;;;;4953559;28;20480;-69
2023/07/26 07:53:33;;;;;;;10.52;2.72;;;16.30;62.50;;;;;;4946592;28;20551;-69
2023/07/26 07:56:00;;;;;;;12.75;2.78;;;16.20;63.20;;;;;;4941289;28;20086;-69
2023/07/26 07:58:28;;;;;;;7.20;3.15;;;16.00;63.70;;;;;;4946543;28;20066;-69
2023/07/26 08:00:59;;;;;;;4.75;2.45;;;16.00;63.70;;;;;;4940532;28;20469;-70
2023/07/26 08:03:26;;;;;;;5.70;2.53;;;16.00;63.50;;;;;;4931240;28;20034;-70
2023/07/26 08:05:54;;;;;;;9.20;2.72;;;16.10;63.70;;;;;;4949055;28;20509;-70
2023/07/26 08:08:22;;;;;;;6.50;3.20;;;16.10;64.50;;;;;;4954782;28;20035;-70
2023/07/26 08:10:50;;;;;;;8.43;2.97;;;16.10;64.70;;;;;;4953150;28;20411;-70
2023/07/26 08:13:17;;;;;;;7.30;2.28;;;16.00;65.80;;;;;;4946695;28;20094;-69
2023/07/26 08:15:45;;;;;;;11.30;2.90;;;15.80;66.40;;;;;;4943166;28;20495;-70
2023/07/26 08:18:12;;;;;;;11.40;3.20;;;15.60;67.50;;;;;;4944000;28;20039;-70
2023/07/26 08:20:40;;;;;;;7.50;2.95;;;15.30;68.60;;;;;;4950543;28;20042;-70
2023/07/26 08:23:07;;;;;;;10.32;3.47;;;15.10;69.40;;;;;;4950933;28;20070;-69
2023/07/26 08:25:34;;;;;;;11.77;4.38;;;15.00;70.10;;;;;;4945014;28;20357;-71
2023/07/26 08:28:02;;;;;;;8.52;4.20;;;14.90;70.30;;;;;;4948757;28;20038;-70
2023/07/26 08:30:29;;;;;;;9.07;4.18;;;14.80;71.50;;;;;;4949463;28;20042;-70
2023/07/26 08:32:56;;;;;;;17.35;5.50;;;14.70;72.00;;;;;;4950939;28;20392;-69
2023/07/26 08:35:24;;;;;;;9.25;4.35;;;14.50;72.20;;;;;;4950760;28;20034;-69
2023/07/26 08:37:52;;;;;;;14.00;4.57;;;14.50;72.60;;;;;;4950710;28;20035;-73
2023/07/26 08:40:20;;;;;;;11.93;4.80;;;14.50;72.90;;;;;;4949277;28;20023;-69
2023/07/26 08:42:48;;;;;;;14.13;4.60;;;14.40;72.70;;;;;;4948987;28;20031;-70
2023/07/26 08:45:16;;;;;;;6.40;3.92;;;14.40;74.10;;;;;;4949911;28;20039;-69
2023/07/26 08:47:44;;;;;;;8.48;4.30;;;14.40;74.40;;;;;;4943216;28;20031;-71
2023/07/26 08:50:12;;;;;;;7.05;3.83;;;14.30;74.70;;;;;;4945883;28;20020;-70
2023/07/26 08:52:40;;;;;;;7.93;4.00;;;14.10;75.80;;;;;;4950027;28;20024;-70
2023/07/26 08:55:10;;;;;;;10.60;3.83;;;14.00;76.50;;;;;;4948225;28;20136;-68
2023/07/26 08:57:37;;;;;;;9.65;3.80;;;13.90;77.10;;;;;;4960190;28;20047;-69
2023/07/26 09:00:05;;;;;;;8.00;3.60;;;13.80;77.20;;;;;;4947902;28;20034;-68
2023/07/26 09:02:34;;;;;;;8.77;3.83;;;13.70;77.70;;;;;;4951540;28;20039;-69
2023/07/26 09:05:02;;;;;;;10.27;3.92;;;13.70;78.20;;;;;;4949948;28;20106;-69
2023/07/26 09:07:30;;;;;;;11.55;4.60;;;13.70;78.60;;;;;;4938151;28;20062;-69
2023/07/26 09:09:57;;;;;;;8.23;4.03;;;13.70;78.90;;;;;;4930850;28;20027;-69
2023/07/26 09:12:27;;;;;;;10.98;4.18;;;13.60;78.80;;;;;;4943330;28;20080;-69
2023/07/26 09:14:58;;;;;;;8.13;5.10;;;13.60;79.20;;;;;;4947033;28;20039;-69
2023/07/26 09:17:43;;;;;;;7.07;5.32;;;13.50;79.60;;;;;;4944471;28;20206;-68
2023/07/26 09:20:28;;;;;;;15.10;8.73;;;13.50;79.70;;;;;;4948797;28;20039;-69
2023/07/26 09:23:05;;;;;;;14.98;6.78;;;13.80;79.90;;;;;;4950838;28;20460;-72
2023/07/26 09:25:34;;;;;;;14.88;7.00;;;13.70;79.00;;;;;;4932672;28;20035;-68
2023/07/26 09:28:03;;;;;;;11.32;6.18;;;13.70;79.70;;;;;;4949267;28;20501;-69
2023/07/26 09:30:36;;;;;;;8.35;4.55;;;13.60;79.70;;;;;;4937908;28;20031;-69
2023/07/26 09:33:06;;;;;;;12.20;6.13;;;13.50;80.00;;;;;;4924836;28;20744;-70
2023/07/26 09:35:42;;;;;;;12.65;6.28;;;13.50;80.40;;;;;;4914700;28;20027;-72
2023/07/26 09:38:17;;;;;;;10.98;5.25;;;13.40;81.20;;;;;;4923944;28;20044;-69
2023/07/26 09:40:45;;;;;;;9.68;5.03;;;13.30;81.90;;;;;;4945756;28;20024;-68
2023/07/26 09:43:12;;;;;;;8.82;5.00;;;13.20;81.70;;;;;;4964820;28;20424;-68
2023/07/26 09:45:40;;;;;;;11.43;4.60;;;13.10;82.00;;;;;;4944146;28;22474;-69
2023/07/26 09:48:14;;;;;;;10.07;5.00;;;13.10;82.00;;;;;;4922807;28;20035;-72
2023/07/26 09:50:45;;;;;;;11.45;6.40;;;13.10;83.00;;;;;;4894494;28;20203;-71
2023/07/26 09:53:14;;;;;;;9.68;4.93;;;13.00;83.10;;;;;;4886080;28;20039;-72
2023/07/26 09:55:42;;;;;;;7.07;4.13;;;13.00;83.70;;;;;;4909397;28;20400;-70
2023/07/26 09:58:11;;;;;;;7.82;4.18;;;13.10;84.10;;;;;;4914592;28;21032;-72
2023/07/26 10:00:39;;;;;;;6.63;2.92;;;13.20;84.10;;;;;;4868463;28;20344;-72
2023/07/26 10:03:08;;;;;;;6.55;3.47;;;13.30;84.20;;;;;;4932803;28;20034;-70
2023/07/26 10:05:45;;;;;;;6.93;3.15;;;13.30;84.30;;;;;;4942723;28;20469;-68
2023/07/26 10:08:13;;;;;;;5.05;3.03;;;13.30;84.60;;;;;;4945961;28;20392;-70
2023/07/26 10:10:43;;;;;;;14.75;4.43;;;13.30;85.10;;;;;;4944272;28;20027;-69
2023/07/26 10:13:12;;;;;;;11.07;4.60;;;13.50;83.30;;;;;;4966787;28;20031;-68
2023/07/26 10:15:44;;;;;;;13.02;4.38;;;13.30;81.10;;;;;;4955402;28;20039;-69
2023/07/26 10:18:16;;;;;;;12.95;4.88;;;13.20;82.10;;;;;;4955127;28;20050;-69
2023/07/26 10:20:46;;;;;;;11.75;5.93;;;12.80;82.90;;;;;;4951914;28;20035;-68
2023/07/26 10:23:13;;;;;;;11.50;5.43;;;12.50;84.90;;;;;;4956825;28;20038;-68
2023/07/26 10:25:42;;;;;;;15.27;4.88;;;12.50;86.10;;;;;;4947535;28;20031;-68
2023/07/26 10:28:10;;;;;;;12.93;5.10;;;12.40;85.70;;;;;;4948871;28;20027;-68
2023/07/26 10:30:39;;;;;;;15.38;6.43;;;12.40;86.20;;;;;;4952249;28;20034;-68
2023/07/26 10:33:13;;;;;;;16.63;6.85;;;12.40;86.20;;;;;;4953037;28;20446;-68
2023/07/26 10:35:42;;;;;;;20.77;8.07;;;12.30;86.40;;;;;;4924965;28;20121;-69
2023/07/26 10:38:13;;;;;;;14.00;7.13;;;12.10;86.90;;;;;;4949123;28;20050;-68
2023/07/26 10:40:41;;;;;;;18.35;7.53;;;12.00;87.80;;;;;;4938471;28;20107;-69
2023/07/26 10:43:39;;;;;;;17.10;6.88;;;11.90;88.40;;;;;;4948525;28;20031;-70
2023/07/26 10:46:38;;;;;;;14.48;6.07;;;11.80;88.40;;;;;;4945330;28;20074;-70
2023/07/26 10:49:33;;;;;;;9.10;5.38;;;11.70;88.90;;;;;;4945847;28;20482;-69
2023/07/26 10:52:06;;;;;;;14.18;5.45;;;11.70;89.60;;;;;;4950749;28;20114;-68
2023/07/26 10:54:38;;;;;;;9.68;5.40;;;11.70;89.50;;;;;;4946236;28;20097;-67
2023/07/26 10:57:27;;;;;;;9.60;4.80;;;11.60;90.00;;;;;;4951398;28;20087;-67
2023/07/26 11:00:04;;;;;;;12.15;5.63;;;11.50;90.20;;;;;;4953603;28;20035;-69
2023/07/26 11:02:59;;;;;;;9.57;5.60;;;11.50;90.40;;;;;;4951348;28;20030;-69
2023/07/26 11:05:30;;;;;;;13.43;6.13;;;11.50;90.50;;;;;;4946767;28;20285;-68
2023/07/26 11:08:09;;;;;;;14.43;5.95;;;11.50;90.60;;;;;;4967239;28;20024;-69
2023/07/26 11:10:51;;;;;;;26.65;8.05;;;11.40;91.00;;;;;;4936857;28;20059;-69
2023/07/26 11:13:28;;;;;;;14.13;6.15;;;11.40;90.70;;;;;;4947840;28;20058;-69
2023/07/26 11:15:56;;;;;;;13.98;6.55;;;11.30;90.80;;;;;;4945333;28;20038;-72
2023/07/26 11:18:23;;;;;;;14.73;6.93;;;11.40;91.00;;;;;;4946440;28;20175;-69
2023/07/26 11:20:52;;;;;;;;;;;11.40;91.20;;;;;;4946821;28;20468;-69
2023/07/26 11:23:28;;;;;;;13.35;6.20;;;11.30;91.30;;;;;;4953532;28;19929;-68
2023/07/26 11:26:00;;;;;;;8.90;5.85;;;11.30;91.60;;;;;;4945479;28;20043;-69
2023/07/26 11:28:32;;;;;;;13.20;6.05;;;11.30;91.80;;;;;;4945261;28;20020;-69
2023/07/26 11:31:01;;;;;;;12.88;6.18;;;11.40;92.10;;;;;;4952263;28;20035;-69
2023/07/26 11:33:34;;;;;;;18.02;6.93;;;11.40;92.00;;;;;;4945675;28;20801;-69
2023/07/26 11:36:03;;;;;;;11.27;6.47;;;11.40;92.20;;;;;;4943416;28;20035;-68
2023/07/26 11:38:31;;;;;;;12.60;7.00;;;11.40;92.10;;;;;;4936643;28;20057;-70
2023/07/26 11:40:59;;;;;;;11.30;7.13;;;11.30;92.10;;;;;;4948642;28;20028;-69
2023/07/26 11:43:30;;;;;;;18.80;7.78;;;11.20;92.10;;;;;;4951951;28;20106;-69
2023/07/26 11:45:58;;;;;;;19.60;8.57;;;11.20;92.20;;;;;;4955425;28;20038;-68
2023/07/26 11:48:29;;;;;;;22.50;9.38;;;11.20;92.30;;;;;;4952375;28;20054;-70
2023/07/26 11:50:59;;;;;;;14.50;8.30;;;11.10;92.20;;;;;;4948244;28;20388;-68
2023/07/26 11:53:32;;;;;;;15.68;7.72;;;11.10;92.30;;;;;;4955794;28;20027;-68
2023/07/26 11:56:01;;;;;;;13.32;7.53;;;11.20;92.60;;;;;;4948032;28;20042;-69
2023/07/26 11:58:34;;;;;;;12.27;6.78;;;11.20;92.50;;;;;;4949300;28;20058;-69
2023/07/26 12:01:03;;;;;;;12.32;6.65;;;11.10;92.70;;;;;;4932929;28;20051;-69
2023/07/26 12:03:31;;;;;;;17.17;6.95;;;11.00;92.60;;;;;;4939867;28;20023;-69
2023/07/26 12:05:58;;;;;;;17.63;7.00;;;10.90;92.70;;;;;;4942432;28;20031;-69
2023/07/26 12:08:29;;;;;;;12.82;6.50;;;10.70;93.00;;;;;;4949239;28;20045;-69
2023/07/26 12:11:03;;;;;;;11.77;6.13;;;10.80;92.90;;;;;;4944318;28;20031;-68
2023/07/26 12:13:35;;;;;;;12.82;6.28;;;10.60;92.40;;;;;;4922582;28;20489;-69
2023/07/26 12:16:03;;;;;;;10.43;5.80;;;10.50;92.50;;;;;;4949818;28;20034;-69
2023/07/26 12:18:32;;;;;;;15.40;8.88;;;10.40;92.70;;;;;;4953576;28;20047;-69
2023/07/26 12:21:08;;;;;;;43.33;20.55;;;10.40;92.90;;;;;;4935755;28;20034;-68
2023/07/26 12:23:55;;;;;;;50.10;26.73;;;10.40;93.10;;;;;;4954721;28;20031;-69
2023/07/26 12:26:31;;;;;;;37.67;19.67;;;10.50;93.30;;;;;;4948112;28;20046;-69
2023/07/26 12:29:01;;;;;;;36.67;19.05;;;10.60;93.40;;;;;;4944315;28;20031;-70
2023/07/26 12:31:30;;;;;;;31.10;15.05;;;10.60;93.00;;;;;;4948877;28;20073;-69
2023/07/26 12:34:08;;;;;;;15.93;9.98;;;10.60;92.90;;;;;;4949362;28;20395;-69
2023/07/26 12:36:45;;;;;;;15.38;8.95;;;10.60;92.80;;;;;;4951161;28;20039;-68
2023/07/26 12:39:24;;;;;;;18.50;8.57;;;10.70;92.80;;;;;;4941103;28;20019;-68
2023/07/26 12:41:52;;;;;;;14.65;7.90;;;10.60;92.80;;;;;;4949180;28;20035;-68
2023/07/26 12:44:20;;;;;;;13.75;7.18;;;10.50;92.50;;;;;;4938263;28;20062;-68
2023/07/26 12:46:47;;;;;;;15.88;8.57;;;10.50;92.50;;;;;;4951054;28;20467;-69
2023/07/26 12:49:15;;;;;;;16.50;8.93;;;10.50;92.60;;;;;;4947235;28;20038;-68
2023/07/26 12:51:42;;;;;;;17.05;10.13;;;10.50;92.60;;;;;;4949920;28;20046;-67
2023/07/26 12:54:09;;;;;;;;;;;10.50;92.30;;;;;;4950689;28;20031;-69